sensor_id;sensor_type;location;lat;lon;timestamp;P1;durP1;ratioP1;P2;durP2;ratioP2
14681;SDS011;7429;52.498;13.480;2023-01-28T00:00:00;9.03;;;6.63;;
14681;SDS011;7429;52.498;13.480;2023-01-28T00:03:05;11.27;;;6.80;;
14681;SDS011;7429;52.498;13.480;2023-01-28T00:06:09;9.93;;;8.67;;
14681;SDS011;7429;52.498;13.480;2023-01-28T00:09:14;8.80;;;8.00;;
14681;SDS011;7429;52.498;13.480;2023-01-28T00:12:19;9.33;;;6.70;;
14681;SDS011;7429;52.498;13.480;2023-01-28T00:15:22;8.70;;;6.97;;
14681;SDS011;7429;52.498;13.480;2023-01-28T00:18:26;10.50;;;7.77;;
14681;SDS011;7429;52.498;13.480;2023-01-28T00:21:30;13.10;;;7.27;;
14681;SDS011;7429;52.498;13.480;2023-01-28T00:24:33;11.80;;;6.83;;
14681;SDS011;7429;52.498;13.480;2023-01-28T00:27:37;9.27;;;7.43;;
14681;SDS011;7429;52.498;13.480;2023-01-28T00:30:40;10.87;;;7.43;;
14681;SDS011;7429;52.498;13.480;2023-01-28T00:33:44;7.73;;;6.93;;
14681;SDS011;7429;52.498;13.480;2023-01-28T00:36:49;9.90;;;7.57;;
14681;SDS011;7429;52.498;13.480;2023-01-28T00:39:58;10.67;;;7.20;;
14681;SDS011;7429;52.498;13.480;2023-01-28T00:43:03;9.93;;;7.70;;
14681;SDS011;7429;52.498;13.480;2023-01-28T00:46:06;13.57;;;8.20;;
14681;SDS011;7429;52.498;13.480;2023-01-28T00:49:11;8.67;;;6.80;;
14681;SDS011;7429;52.498;13.480;2023-01-28T00:52:14;7.97;;;6.40;;
14681;SDS011;7429;52.498;13.480;2023-01-28T00:55:18;12.87;;;7.03;;
14681;SDS011;7429;52.498;13.480;2023-01-28T00:58:23;10.03;;;7.10;;
14681;SDS011;7429;52.498;13.480;2023-01-28T01:01:26;9.23;;;5.83;;
14681;SDS011;7429;52.498;13.480;2023-01-28T01:04:29;12.07;;;7.13;;
14681;SDS011;7429;52.498;13.480;2023-01-28T01:07:36;10.83;;;6.93;;
14681;SDS011;7429;52.498;13.480;2023-01-28T01:10:45;11.27;;;6.93;;
14681;SDS011;7429;52.498;13.480;2023-01-28T01:13:50;11.33;;;7.37;;
14681;SDS011;7429;52.498;13.480;2023-01-28T01:16:58;13.00;;;8.33;;
14681;SDS011;7429;52.498;13.480;2023-01-28T01:20:02;15.23;;;8.50;;
14681;SDS011;7429;52.498;13.480;2023-01-28T01:23:07;13.53;;;8.33;;
14681;SDS011;7429;52.498;13.480;2023-01-28T01:26:10;11.07;;;8.13;;
14681;SDS011;7429;52.498;13.480;2023-01-28T01:29:16;9.90;;;8.03;;
14681;SDS011;7429;52.498;13.480;2023-01-28T01:32:19;14.40;;;8.10;;
14681;SDS011;7429;52.498;13.480;2023-01-28T01:35:22;10.73;;;8.17;;
14681;SDS011;7429;52.498;13.480;2023-01-28T01:38:26;9.83;;;7.93;;
14681;SDS011;7429;52.498;13.480;2023-01-28T01:41:31;13.77;;;7.07;;
14681;SDS011;7429;52.498;13.480;2023-01-28T01:44:53;9.77;;;8.10;;
14681;SDS011;7429;52.498;13.480;2023-01-28T01:48:00;12.73;;;8.53;;
14681;SDS011;7429;52.498;13.480;2023-01-28T01:51:16;10.53;;;7.17;;
14681;SDS011;7429;52.498;13.480;2023-01-28T01:54:23;9.67;;;7.83;;
14681;SDS011;7429;52.498;13.480;2023-01-28T01:57:31;11.33;;;7.67;;
14681;SDS011;7429;52.498;13.480;2023-01-28T02:00:37;9.70;;;7.33;;
14681;SDS011;7429;52.498;13.480;2023-01-28T02:03:42;10.27;;;7.27;;
14681;SDS011;7429;52.498;13.480;2023-01-28T02:06:55;7.60;;;6.70;;
14681;SDS011;7429;52.498;13.480;2023-01-28T02:10:03;8.10;;;7.17;;
14681;SDS011;7429;52.498;13.480;2023-01-28T02:13:09;13.30;;;7.30;;
14681;SDS011;7429;52.498;13.480;2023-01-28T02:16:14;10.33;;;6.10;;
14681;SDS011;7429;52.498;13.480;2023-01-28T02:19:18;10.30;;;7.13;;
14681;SDS011;7429;52.498;13.480;2023-01-28T02:22:35;12.83;;;7.53;;
14681;SDS011;7429;52.498;13.480;2023-01-28T02:26:01;9.20;;;7.37;;
14681;SDS011;7429;52.498;13.480;2023-01-28T02:29:43;9.07;;;7.20;;
14681;SDS011;7429;52.498;13.480;2023-01-28T02:32:52;9.53;;;6.60;;
14681;SDS011;7429;52.498;13.480;2023-01-28T02:36:01;8.80;;;7.57;;
14681;SDS011;7429;52.498;13.480;2023-01-28T02:39:17;8.17;;;7.47;;
14681;SDS011;7429;52.498;13.480;2023-01-28T02:42:26;10.10;;;6.97;;
14681;SDS011;7429;52.498;13.480;2023-01-28T02:45:32;9.40;;;6.97;;
14681;SDS011;7429;52.498;13.480;2023-01-28T02:48:51;11.80;;;6.60;;
14681;SDS011;7429;52.498;13.480;2023-01-28T02:52:01;8.77;;;7.47;;
14681;SDS011;7429;52.498;13.480;2023-01-28T02:55:19;9.37;;;6.93;;
14681;SDS011;7429;52.498;13.480;2023-01-28T02:58:36;10.87;;;7.23;;
14681;SDS011;7429;52.498;13.480;2023-01-28T03:01:46;8.77;;;7.10;;
14681;SDS011;7429;52.498;13.480;2023-01-28T03:04:52;9.33;;;6.73;;
14681;SDS011;7429;52.498;13.480;2023-01-28T03:08:03;7.90;;;7.10;;
14681;SDS011;7429;52.498;13.480;2023-01-28T03:11:29;9.27;;;6.07;;
14681;SDS011;7429;52.498;13.480;2023-01-28T03:14:55;7.00;;;6.30;;
14681;SDS011;7429;52.498;13.480;2023-01-28T03:18:20;8.57;;;6.80;;
14681;SDS011;7429;52.498;13.480;2023-01-28T03:21:44;11.53;;;6.90;;
14681;SDS011;7429;52.498;13.480;2023-01-28T03:25:07;11.53;;;7.23;;
14681;SDS011;7429;52.498;13.480;2023-01-28T03:28:36;6.53;;;5.93;;
14681;SDS011;7429;52.498;13.480;2023-01-28T03:31:58;8.20;;;6.80;;
14681;SDS011;7429;52.498;13.480;2023-01-28T03:35:22;11.87;;;6.43;;
14681;SDS011;7429;52.498;13.480;2023-01-28T03:38:45;7.33;;;6.60;;
14681;SDS011;7429;52.498;13.480;2023-01-28T03:42:00;7.53;;;6.60;;
14681;SDS011;7429;52.498;13.480;2023-01-28T03:45:05;8.50;;;7.20;;
14681;SDS011;7429;52.498;13.480;2023-01-28T03:48:10;8.57;;;7.03;;
14681;SDS011;7429;52.498;13.480;2023-01-28T03:51:17;7.87;;;5.90;;
14681;SDS011;7429;52.498;13.480;2023-01-28T03:54:20;7.33;;;6.53;;
14681;SDS011;7429;52.498;13.480;2023-01-28T03:57:25;5.17;;;4.77;;
14681;SDS011;7429;52.498;13.480;2023-01-28T04:00:31;6.67;;;5.77;;
14681;SDS011;7429;52.498;13.480;2023-01-28T04:03:38;7.00;;;6.07;;
14681;SDS011;7429;52.498;13.480;2023-01-28T04:06:47;6.60;;;5.33;;
14681;SDS011;7429;52.498;13.480;2023-01-28T04:09:56;6.33;;;5.83;;
14681;SDS011;7429;52.498;13.480;2023-01-28T04:13:10;6.40;;;5.80;;
14681;SDS011;7429;52.498;13.480;2023-01-28T04:16:15;6.23;;;5.53;;
14681;SDS011;7429;52.498;13.480;2023-01-28T04:19:21;6.60;;;5.97;;
14681;SDS011;7429;52.498;13.480;2023-01-28T04:22:26;6.10;;;5.60;;
14681;SDS011;7429;52.498;13.480;2023-01-28T04:25:30;8.23;;;5.57;;
14681;SDS011;7429;52.498;13.480;2023-01-28T04:28:34;7.20;;;5.47;;
14681;SDS011;7429;52.498;13.480;2023-01-28T04:31:37;5.97;;;5.40;;
14681;SDS011;7429;52.498;13.480;2023-01-28T04:34:55;6.47;;;5.77;;
14681;SDS011;7429;52.498;13.480;2023-01-28T04:38:11;6.00;;;5.37;;
14681;SDS011;7429;52.498;13.480;2023-01-28T04:41:26;6.80;;;6.17;;
14681;SDS011;7429;52.498;13.480;2023-01-28T04:44:35;5.83;;;5.23;;
14681;SDS011;7429;52.498;13.480;2023-01-28T04:47:53;8.53;;;5.77;;
14681;SDS011;7429;52.498;13.480;2023-01-28T04:51:15;5.67;;;5.27;;
14681;SDS011;7429;52.498;13.480;2023-01-28T04:54:29;6.53;;;5.23;;
14681;SDS011;7429;52.498;13.480;2023-01-28T04:57:35;6.50;;;6.00;;
14681;SDS011;7429;52.498;13.480;2023-01-28T05:00:41;6.40;;;5.47;;
14681;SDS011;7429;52.498;13.480;2023-01-28T05:03:44;8.53;;;5.53;;
14681;SDS011;7429;52.498;13.480;2023-01-28T05:06:54;7.80;;;6.00;;
14681;SDS011;7429;52.498;13.480;2023-01-28T05:10:06;7.13;;;6.57;;
14681;SDS011;7429;52.498;13.480;2023-01-28T05:13:11;6.50;;;6.07;;
14681;SDS011;7429;52.498;13.480;2023-01-28T05:16:15;7.13;;;6.63;;
14681;SDS011;7429;52.498;13.480;2023-01-28T05:19:18;6.23;;;5.83;;
14681;SDS011;7429;52.498;13.480;2023-01-28T05:22:21;6.23;;;5.63;;
14681;SDS011;7429;52.498;13.480;2023-01-28T05:25:51;7.13;;;6.43;;
14681;SDS011;7429;52.498;13.480;2023-01-28T05:28:54;5.87;;;5.37;;
14681;SDS011;7429;52.498;13.480;2023-01-28T05:31:58;6.50;;;5.90;;
14681;SDS011;7429;52.498;13.480;2023-01-28T05:35:01;6.00;;;5.40;;
14681;SDS011;7429;52.498;13.480;2023-01-28T05:38:05;6.00;;;5.40;;
14681;SDS011;7429;52.498;13.480;2023-01-28T05:41:09;7.43;;;5.37;;
14681;SDS011;7429;52.498;13.480;2023-01-28T05:44:13;6.77;;;5.53;;
14681;SDS011;7429;52.498;13.480;2023-01-28T05:47:52;5.97;;;5.43;;
14681;SDS011;7429;52.498;13.480;2023-01-28T05:51:09;6.93;;;6.23;;
14681;SDS011;7429;52.498;13.480;2023-01-28T05:54:18;6.77;;;5.67;;
14681;SDS011;7429;52.498;13.480;2023-01-28T05:57:23;5.57;;;5.17;;
14681;SDS011;7429;52.498;13.480;2023-01-28T06:00:26;6.87;;;6.27;;
14681;SDS011;7429;52.498;13.480;2023-01-28T06:03:29;6.47;;;5.90;;
14681;SDS011;7429;52.498;13.480;2023-01-28T06:06:32;6.63;;;6.03;;
14681;SDS011;7429;52.498;13.480;2023-01-28T06:09:38;7.20;;;5.73;;
14681;SDS011;7429;52.498;13.480;2023-01-28T06:12:46;10.53;;;6.50;;
14681;SDS011;7429;52.498;13.480;2023-01-28T06:16:09;9.53;;;6.63;;
14681;SDS011;7429;52.498;13.480;2023-01-28T06:19:20;6.47;;;5.73;;
14681;SDS011;7429;52.498;13.480;2023-01-28T06:22:23;8.93;;;6.50;;
14681;SDS011;7429;52.498;13.480;2023-01-28T06:25:27;10.27;;;8.30;;
14681;SDS011;7429;52.498;13.480;2023-01-28T06:28:35;12.17;;;7.80;;
14681;SDS011;7429;52.498;13.480;2023-01-28T06:31:38;10.33;;;8.97;;
14681;SDS011;7429;52.498;13.480;2023-01-28T06:34:42;11.60;;;8.93;;
14681;SDS011;7429;52.498;13.480;2023-01-28T06:37:45;14.73;;;9.53;;
14681;SDS011;7429;52.498;13.480;2023-01-28T06:40:50;11.67;;;8.97;;
14681;SDS011;7429;52.498;13.480;2023-01-28T06:43:57;14.13;;;10.40;;
14681;SDS011;7429;52.498;13.480;2023-01-28T06:47:00;14.73;;;10.20;;
14681;SDS011;7429;52.498;13.480;2023-01-28T06:50:03;10.67;;;9.13;;
14681;SDS011;7429;52.498;13.480;2023-01-28T06:53:07;16.13;;;9.67;;
14681;SDS011;7429;52.498;13.480;2023-01-28T06:56:10;15.93;;;10.10;;
14681;SDS011;7429;52.498;13.480;2023-01-28T06:59:15;16.23;;;10.97;;
14681;SDS011;7429;52.498;13.480;2023-01-28T07:02:18;14.03;;;9.67;;
14681;SDS011;7429;52.498;13.480;2023-01-28T07:05:21;13.67;;;10.00;;
14681;SDS011;7429;52.498;13.480;2023-01-28T07:08:25;16.27;;;10.00;;
14681;SDS011;7429;52.498;13.480;2023-01-28T07:11:28;20.03;;;10.63;;
14681;SDS011;7429;52.498;13.480;2023-01-28T07:14:35;19.10;;;11.07;;
14681;SDS011;7429;52.498;13.480;2023-01-28T07:17:38;14.20;;;10.33;;
14681;SDS011;7429;52.498;13.480;2023-01-28T07:20:42;15.97;;;11.73;;
14681;SDS011;7429;52.498;13.480;2023-01-28T07:23:45;13.23;;;9.83;;
14681;SDS011;7429;52.498;13.480;2023-01-28T07:26:51;17.17;;;11.77;;
14681;SDS011;7429;52.498;13.480;2023-01-28T07:34:54;14.00;;;10.27;;
14681;SDS011;7429;52.498;13.480;2023-01-28T07:37:58;11.67;;;10.43;;
14681;SDS011;7429;52.498;13.480;2023-01-28T07:41:02;13.23;;;9.67;;
14681;SDS011;7429;52.498;13.480;2023-01-28T07:44:06;12.13;;;10.03;;
14681;SDS011;7429;52.498;13.480;2023-01-28T07:47:10;13.23;;;9.00;;
14681;SDS011;7429;52.498;13.480;2023-01-28T07:50:14;11.23;;;8.60;;
14681;SDS011;7429;52.498;13.480;2023-01-28T07:53:20;9.63;;;7.90;;
14681;SDS011;7429;52.498;13.480;2023-01-28T07:56:23;14.17;;;10.37;;
14681;SDS011;7429;52.498;13.480;2023-01-28T07:59:29;11.03;;;8.90;;
14681;SDS011;7429;52.498;13.480;2023-01-28T08:02:34;12.47;;;9.00;;
14681;SDS011;7429;52.498;13.480;2023-01-28T08:05:50;13.80;;;9.60;;
14681;SDS011;7429;52.498;13.480;2023-01-28T08:09:16;14.50;;;9.63;;
14681;SDS011;7429;52.498;13.480;2023-01-28T08:12:19;18.17;;;9.97;;
14681;SDS011;7429;52.498;13.480;2023-01-28T08:15:22;12.97;;;9.00;;
14681;SDS011;7429;52.498;13.480;2023-01-28T08:18:27;13.77;;;10.57;;
14681;SDS011;7429;52.498;13.480;2023-01-28T08:21:30;11.57;;;9.50;;
14681;SDS011;7429;52.498;13.480;2023-01-28T08:24:33;13.20;;;9.77;;
14681;SDS011;7429;52.498;13.480;2023-01-28T08:27:36;13.67;;;9.93;;
14681;SDS011;7429;52.498;13.480;2023-01-28T08:30:40;14.77;;;9.93;;
14681;SDS011;7429;52.498;13.480;2023-01-28T08:33:45;15.83;;;10.13;;
14681;SDS011;7429;52.498;13.480;2023-01-28T08:36:48;18.13;;;11.30;;
14681;SDS011;7429;52.498;13.480;2023-01-28T08:39:51;17.17;;;11.10;;
14681;SDS011;7429;52.498;13.480;2023-01-28T08:42:54;15.70;;;11.67;;
14681;SDS011;7429;52.498;13.480;2023-01-28T08:45:57;16.40;;;10.00;;
14681;SDS011;7429;52.498;13.480;2023-01-28T08:49:01;14.57;;;10.67;;
14681;SDS011;7429;52.498;13.480;2023-01-28T08:52:04;12.90;;;9.17;;
14681;SDS011;7429;52.498;13.480;2023-01-28T08:55:08;13.87;;;10.37;;
14681;SDS011;7429;52.498;13.480;2023-01-28T08:58:12;10.17;;;8.00;;
14681;SDS011;7429;52.498;13.480;2023-01-28T09:01:17;10.50;;;7.80;;
14681;SDS011;7429;52.498;13.480;2023-01-28T09:04:21;11.83;;;7.90;;
14681;SDS011;7429;52.498;13.480;2023-01-28T09:07:24;9.23;;;6.80;;
14681;SDS011;7429;52.498;13.480;2023-01-28T09:10:27;10.57;;;7.37;;
14681;SDS011;7429;52.498;13.480;2023-01-28T09:13:31;9.00;;;7.93;;
14681;SDS011;7429;52.498;13.480;2023-01-28T09:16:34;8.53;;;6.37;;
14681;SDS011;7429;52.498;13.480;2023-01-28T09:19:38;8.33;;;6.20;;
14681;SDS011;7429;52.498;13.480;2023-01-28T09:22:43;6.43;;;5.30;;
14681;SDS011;7429;52.498;13.480;2023-01-28T09:25:46;6.73;;;5.17;;
14681;SDS011;7429;52.498;13.480;2023-01-28T09:28:49;6.27;;;5.77;;
14681;SDS011;7429;52.498;13.480;2023-01-28T09:31:53;6.30;;;5.43;;
14681;SDS011;7429;52.498;13.480;2023-01-28T09:34:58;5.90;;;5.30;;
14681;SDS011;7429;52.498;13.480;2023-01-28T09:38:01;6.87;;;6.27;;
14681;SDS011;7429;52.498;13.480;2023-01-28T09:41:09;6.27;;;5.57;;
14681;SDS011;7429;52.498;13.480;2023-01-28T09:44:29;6.87;;;5.20;;
14681;SDS011;7429;52.498;13.480;2023-01-28T09:47:46;6.50;;;4.80;;
14681;SDS011;7429;52.498;13.480;2023-01-28T09:50:54;4.97;;;4.27;;
14681;SDS011;7429;52.498;13.480;2023-01-28T09:53:58;5.07;;;4.67;;
14681;SDS011;7429;52.498;13.480;2023-01-28T09:57:10;4.80;;;4.40;;
14681;SDS011;7429;52.498;13.480;2023-01-28T10:00:21;6.40;;;5.23;;
14681;SDS011;7429;52.498;13.480;2023-01-28T10:03:37;5.03;;;4.57;;
14681;SDS011;7429;52.498;13.480;2023-01-28T10:06:55;3.80;;;3.50;;
14681;SDS011;7429;52.498;13.480;2023-01-28T10:10:13;4.50;;;4.20;;
14681;SDS011;7429;52.498;13.480;2023-01-28T10:13:27;5.80;;;4.40;;
14681;SDS011;7429;52.498;13.480;2023-01-28T10:16:42;4.07;;;3.77;;
14681;SDS011;7429;52.498;13.480;2023-01-28T10:19:52;4.07;;;3.67;;
14681;SDS011;7429;52.498;13.480;2023-01-28T10:23:03;3.43;;;3.23;;
14681;SDS011;7429;52.498;13.480;2023-01-28T10:26:19;3.70;;;3.50;;
14681;SDS011;7429;52.498;13.480;2023-01-28T10:29:34;4.53;;;4.27;;
14681;SDS011;7429;52.498;13.480;2023-01-28T10:32:40;4.17;;;3.77;;
14681;SDS011;7429;52.498;13.480;2023-01-28T10:35:53;3.30;;;3.10;;
14681;SDS011;7429;52.498;13.480;2023-01-28T10:38:59;4.10;;;3.10;;
14681;SDS011;7429;52.498;13.480;2023-01-28T10:42:07;5.43;;;4.20;;
14681;SDS011;7429;52.498;13.480;2023-01-28T10:45:20;4.17;;;3.97;;
14681;SDS011;7429;52.498;13.480;2023-01-28T10:48:28;3.90;;;3.57;;
14681;SDS011;7429;52.498;13.480;2023-01-28T10:51:37;3.83;;;3.50;;
14681;SDS011;7429;52.498;13.480;2023-01-28T10:54:43;3.80;;;3.50;;
14681;SDS011;7429;52.498;13.480;2023-01-28T10:57:46;3.80;;;3.50;;
14681;SDS011;7429;52.498;13.480;2023-01-28T11:00:53;3.67;;;3.37;;
14681;SDS011;7429;52.498;13.480;2023-01-28T11:04:01;3.50;;;3.30;;
14681;SDS011;7429;52.498;13.480;2023-01-28T11:07:05;2.97;;;2.77;;
14681;SDS011;7429;52.498;13.480;2023-01-28T11:10:25;4.67;;;3.93;;
14681;SDS011;7429;52.498;13.480;2023-01-28T11:13:33;7.23;;;3.57;;
14681;SDS011;7429;52.498;13.480;2023-01-28T11:16:37;4.00;;;3.70;;
14681;SDS011;7429;52.498;13.480;2023-01-28T11:19:41;3.30;;;3.10;;
14681;SDS011;7429;52.498;13.480;2023-01-28T11:22:48;3.70;;;3.40;;
14681;SDS011;7429;52.498;13.480;2023-01-28T11:26:00;3.93;;;3.37;;
14681;SDS011;7429;52.498;13.480;2023-01-28T11:29:17;4.43;;;4.00;;
14681;SDS011;7429;52.498;13.480;2023-01-28T11:32:25;3.63;;;3.33;;
14681;SDS011;7429;52.498;13.480;2023-01-28T11:35:30;3.57;;;3.37;;
14681;SDS011;7429;52.498;13.480;2023-01-28T11:38:33;3.43;;;3.13;;
14681;SDS011;7429;52.498;13.480;2023-01-28T11:41:38;3.20;;;3.00;;
14681;SDS011;7429;52.498;13.480;2023-01-28T11:44:41;4.47;;;3.77;;
14681;SDS011;7429;52.498;13.480;2023-01-28T11:47:48;4.80;;;3.30;;
14681;SDS011;7429;52.498;13.480;2023-01-28T11:51:06;3.67;;;3.37;;
14681;SDS011;7429;52.498;13.480;2023-01-28T11:54:27;3.67;;;3.47;;
14681;SDS011;7429;52.498;13.480;2023-01-28T11:57:45;3.80;;;3.50;;
14681;SDS011;7429;52.498;13.480;2023-01-28T12:01:01;5.20;;;4.70;;
14681;SDS011;7429;52.498;13.480;2023-01-28T12:04:21;4.50;;;4.20;;
14681;SDS011;7429;52.498;13.480;2023-01-28T12:07:38;5.43;;;5.10;;
14681;SDS011;7429;52.498;13.480;2023-01-28T12:10:48;5.57;;;4.63;;
14681;SDS011;7429;52.498;13.480;2023-01-28T12:14:07;4.80;;;3.83;;
14681;SDS011;7429;52.498;13.480;2023-01-28T12:17:25;3.60;;;3.30;;
14681;SDS011;7429;52.498;13.480;2023-01-28T12:20:45;4.10;;;3.77;;
14681;SDS011;7429;52.498;13.480;2023-01-28T12:24:02;4.00;;;3.70;;
14681;SDS011;7429;52.498;13.480;2023-01-28T12:27:24;4.53;;;3.90;;
14681;SDS011;7429;52.498;13.480;2023-01-28T12:30:43;7.20;;;4.00;;
14681;SDS011;7429;52.498;13.480;2023-01-28T12:34:15;4.57;;;4.17;;
14681;SDS011;7429;52.498;13.480;2023-01-28T12:37:42;4.80;;;4.33;;
14681;SDS011;7429;52.498;13.480;2023-01-28T12:41:02;4.57;;;4.27;;
14681;SDS011;7429;52.498;13.480;2023-01-28T12:44:12;4.93;;;3.83;;
14681;SDS011;7429;52.498;13.480;2023-01-28T12:47:25;4.43;;;4.10;;
14681;SDS011;7429;52.498;13.480;2023-01-28T12:50:36;4.43;;;4.03;;
14681;SDS011;7429;52.498;13.480;2023-01-28T12:53:45;5.20;;;4.70;;
14681;SDS011;7429;52.498;13.480;2023-01-28T12:56:57;6.90;;;4.37;;
14681;SDS011;7429;52.498;13.480;2023-01-28T13:00:04;5.07;;;4.40;;
14681;SDS011;7429;52.498;13.480;2023-01-28T13:03:24;5.80;;;4.83;;
14681;SDS011;7429;52.498;13.480;2023-01-28T13:06:37;5.13;;;4.47;;
14681;SDS011;7429;52.498;13.480;2023-01-28T13:09:47;8.30;;;5.63;;
14681;SDS011;7429;52.498;13.480;2023-01-28T13:13:00;3.73;;;3.43;;
14681;SDS011;7429;52.498;13.480;2023-01-28T13:16:05;4.30;;;4.00;;
14681;SDS011;7429;52.498;13.480;2023-01-28T13:19:22;5.13;;;4.13;;
14681;SDS011;7429;52.498;13.480;2023-01-28T13:22:31;4.70;;;4.00;;
14681;SDS011;7429;52.498;13.480;2023-01-28T13:25:46;5.87;;;4.77;;
14681;SDS011;7429;52.498;13.480;2023-01-28T13:28:51;5.57;;;4.23;;
14681;SDS011;7429;52.498;13.480;2023-01-28T13:31:56;3.77;;;3.50;;
14681;SDS011;7429;52.498;13.480;2023-01-28T13:35:04;5.27;;;3.90;;
14681;SDS011;7429;52.498;13.480;2023-01-28T13:38:24;4.53;;;4.13;;
14681;SDS011;7429;52.498;13.480;2023-01-28T13:41:36;6.00;;;3.60;;
14681;SDS011;7429;52.498;13.480;2023-01-28T13:44:40;5.30;;;4.17;;
14681;SDS011;7429;52.498;13.480;2023-01-28T13:47:44;4.33;;;3.97;;
14681;SDS011;7429;52.498;13.480;2023-01-28T13:50:56;3.93;;;3.73;;
14681;SDS011;7429;52.498;13.480;2023-01-28T13:54:02;4.40;;;3.73;;
14681;SDS011;7429;52.498;13.480;2023-01-28T14:00:49;4.40;;;4.00;;
14681;SDS011;7429;52.498;13.480;2023-01-28T14:04:46;4.20;;;3.90;;
14681;SDS011;7429;52.498;13.480;2023-01-28T14:08:25;4.33;;;3.43;;
14681;SDS011;7429;52.498;13.480;2023-01-28T14:15:42;3.77;;;3.47;;
14681;SDS011;7429;52.498;13.480;2023-01-28T14:18:59;4.00;;;3.80;;
14681;SDS011;7429;52.498;13.480;2023-01-28T14:22:07;4.40;;;4.00;;
14681;SDS011;7429;52.498;13.480;2023-01-28T14:25:13;5.10;;;3.87;;
14681;SDS011;7429;52.498;13.480;2023-01-28T14:28:26;4.13;;;3.83;;
14681;SDS011;7429;52.498;13.480;2023-01-28T14:31:39;4.27;;;3.90;;
14681;SDS011;7429;52.498;13.480;2023-01-28T14:34:43;4.30;;;4.00;;
14681;SDS011;7429;52.498;13.480;2023-01-28T14:37:47;5.83;;;4.60;;
14681;SDS011;7429;52.498;13.480;2023-01-28T14:40:52;4.53;;;4.13;;
14681;SDS011;7429;52.498;13.480;2023-01-28T14:43:57;4.80;;;4.50;;
14681;SDS011;7429;52.498;13.480;2023-01-28T14:47:13;4.63;;;4.10;;
14681;SDS011;7429;52.498;13.480;2023-01-28T14:50:42;4.33;;;3.83;;
14681;SDS011;7429;52.498;13.480;2023-01-28T14:54:18;4.20;;;3.93;;
14681;SDS011;7429;52.498;13.480;2023-01-28T14:57:39;6.10;;;4.07;;
14681;SDS011;7429;52.498;13.480;2023-01-28T15:00:52;4.30;;;3.90;;
14681;SDS011;7429;52.498;13.480;2023-01-28T15:03:57;4.33;;;3.93;;
14681;SDS011;7429;52.498;13.480;2023-01-28T15:07:05;4.40;;;4.00;;
14681;SDS011;7429;52.498;13.480;2023-01-28T15:10:20;4.33;;;4.13;;
14681;SDS011;7429;52.498;13.480;2023-01-28T15:13:31;3.80;;;3.57;;
14681;SDS011;7429;52.498;13.480;2023-01-28T15:16:38;3.90;;;3.70;;
14681;SDS011;7429;52.498;13.480;2023-01-28T15:19:41;3.93;;;3.73;;
14681;SDS011;7429;52.498;13.480;2023-01-28T15:22:44;4.53;;;4.23;;
14681;SDS011;7429;52.498;13.480;2023-01-28T15:25:48;4.53;;;4.23;;
14681;SDS011;7429;52.498;13.480;2023-01-28T15:28:57;4.27;;;3.97;;
14681;SDS011;7429;52.498;13.480;2023-01-28T15:32:00;4.63;;;3.87;;
14681;SDS011;7429;52.498;13.480;2023-01-28T15:35:06;4.87;;;4.43;;
14681;SDS011;7429;52.498;13.480;2023-01-28T15:38:14;4.50;;;4.10;;
14681;SDS011;7429;52.498;13.480;2023-01-28T15:41:18;4.47;;;4.07;;
14681;SDS011;7429;52.498;13.480;2023-01-28T15:44:27;4.13;;;3.83;;
14681;SDS011;7429;52.498;13.480;2023-01-28T15:47:34;5.40;;;4.90;;
14681;SDS011;7429;52.498;13.480;2023-01-28T15:50:37;3.77;;;3.47;;
14681;SDS011;7429;52.498;13.480;2023-01-28T15:53:45;4.57;;;4.20;;
14681;SDS011;7429;52.498;13.480;2023-01-28T15:56:52;4.93;;;4.50;;
14681;SDS011;7429;52.498;13.480;2023-01-28T16:00:08;4.57;;;4.23;;
14681;SDS011;7429;52.498;13.480;2023-01-28T16:03:19;4.90;;;4.47;;
14681;SDS011;7429;52.498;13.480;2023-01-28T16:06:27;4.30;;;4.00;;
14681;SDS011;7429;52.498;13.480;2023-01-28T16:09:34;4.87;;;4.33;;
14681;SDS011;7429;52.498;13.480;2023-01-28T16:12:38;5.97;;;4.77;;
14681;SDS011;7429;52.498;13.480;2023-01-28T16:15:45;5.20;;;4.80;;
14681;SDS011;7429;52.498;13.480;2023-01-28T16:18:52;4.80;;;4.40;;
14681;SDS011;7429;52.498;13.480;2023-01-28T16:21:59;4.40;;;4.00;;
14681;SDS011;7429;52.498;13.480;2023-01-28T16:25:17;4.90;;;4.57;;
14681;SDS011;7429;52.498;13.480;2023-01-28T16:28:28;4.87;;;4.47;;
14681;SDS011;7429;52.498;13.480;2023-01-28T16:31:34;4.60;;;4.30;;
14681;SDS011;7429;52.498;13.480;2023-01-28T16:34:37;5.30;;;4.80;;
14681;SDS011;7429;52.498;13.480;2023-01-28T16:37:42;4.90;;;4.50;;
14681;SDS011;7429;52.498;13.480;2023-01-28T16:40:46;4.43;;;4.13;;
14681;SDS011;7429;52.498;13.480;2023-01-28T16:43:49;5.97;;;5.37;;
14681;SDS011;7429;52.498;13.480;2023-01-28T16:46:54;5.17;;;4.70;;
14681;SDS011;7429;52.498;13.480;2023-01-28T16:49:57;6.50;;;4.60;;
14681;SDS011;7429;52.498;13.480;2023-01-28T16:53:00;8.33;;;7.53;;
14681;SDS011;7429;52.498;13.480;2023-01-28T16:56:04;4.70;;;4.30;;
14681;SDS011;7429;52.498;13.480;2023-01-28T16:59:31;5.37;;;4.97;;
14681;SDS011;7429;52.498;13.480;2023-01-28T17:02:36;5.10;;;4.70;;
14681;SDS011;7429;52.498;13.480;2023-01-28T17:05:39;5.10;;;4.70;;
14681;SDS011;7429;52.498;13.480;2023-01-28T17:08:42;5.87;;;5.43;;
14681;SDS011;7429;52.498;13.480;2023-01-28T17:11:45;5.37;;;4.57;;
14681;SDS011;7429;52.498;13.480;2023-01-28T17:14:51;5.03;;;4.63;;
14681;SDS011;7429;52.498;13.480;2023-01-28T17:17:55;6.00;;;5.50;;
14681;SDS011;7429;52.498;13.480;2023-01-28T17:20:59;5.63;;;4.60;;
14681;SDS011;7429;52.498;13.480;2023-01-28T17:24:03;7.00;;;5.13;;
14681;SDS011;7429;52.498;13.480;2023-01-28T17:27:08;5.17;;;4.77;;
14681;SDS011;7429;52.498;13.480;2023-01-28T17:30:11;5.20;;;4.80;;
14681;SDS011;7429;52.498;13.480;2023-01-28T17:33:16;4.57;;;4.27;;
14681;SDS011;7429;52.498;13.480;2023-01-28T17:36:19;4.97;;;4.50;;
14681;SDS011;7429;52.498;13.480;2023-01-28T17:39:23;6.00;;;4.43;;
14681;SDS011;7429;52.498;13.480;2023-01-28T17:42:26;4.70;;;4.27;;
14681;SDS011;7429;52.498;13.480;2023-01-28T17:45:31;5.70;;;5.20;;
14681;SDS011;7429;52.498;13.480;2023-01-28T17:48:36;4.27;;;3.70;;
14681;SDS011;7429;52.498;13.480;2023-01-28T17:51:39;4.80;;;4.40;;
14681;SDS011;7429;52.498;13.480;2023-01-28T17:54:42;5.00;;;4.50;;
14681;SDS011;7429;52.498;13.480;2023-01-28T17:57:45;4.83;;;4.43;;
14681;SDS011;7429;52.498;13.480;2023-01-28T18:00:48;5.13;;;4.63;;
14681;SDS011;7429;52.498;13.480;2023-01-28T18:03:53;6.00;;;5.10;;
14681;SDS011;7429;52.498;13.480;2023-01-28T18:06:56;5.63;;;4.87;;
14681;SDS011;7429;52.498;13.480;2023-01-28T18:09:59;5.37;;;4.90;;
14681;SDS011;7429;52.498;13.480;2023-01-28T18:13:02;7.70;;;5.00;;
14681;SDS011;7429;52.498;13.480;2023-01-28T18:16:07;9.50;;;7.03;;
14681;SDS011;7429;52.498;13.480;2023-01-28T18:19:16;6.27;;;5.67;;
14681;SDS011;7429;52.498;13.480;2023-01-28T18:22:19;5.60;;;5.20;;
14681;SDS011;7429;52.498;13.480;2023-01-28T18:25:22;5.07;;;4.57;;
14681;SDS011;7429;52.498;13.480;2023-01-28T18:28:25;6.50;;;4.80;;
14681;SDS011;7429;52.498;13.480;2023-01-28T18:31:29;6.80;;;6.10;;
14681;SDS011;7429;52.498;13.480;2023-01-28T18:34:34;7.20;;;5.40;;
14681;SDS011;7429;52.498;13.480;2023-01-28T18:37:37;6.47;;;5.33;;
14681;SDS011;7429;52.498;13.480;2023-01-28T18:40:42;8.63;;;5.33;;
14681;SDS011;7429;52.498;13.480;2023-01-28T18:43:45;7.43;;;5.20;;
14681;SDS011;7429;52.498;13.480;2023-01-28T18:46:48;6.33;;;5.47;;
14681;SDS011;7429;52.498;13.480;2023-01-28T18:49:53;6.53;;;5.60;;
14681;SDS011;7429;52.498;13.480;2023-01-28T18:52:56;5.20;;;4.80;;
14681;SDS011;7429;52.498;13.480;2023-01-28T18:56:00;5.77;;;5.10;;
14681;SDS011;7429;52.498;13.480;2023-01-28T18:59:05;5.40;;;4.90;;
14681;SDS011;7429;52.498;13.480;2023-01-28T19:02:11;5.43;;;5.03;;